sensor_id;sensor_type;location;lat;lon;timestamp;P1;durP1;ratioP1;P2;durP2;ratioP2
51949;SDS011;37974;53.218;6.640;2023-08-06T00:02:13;13.88;;;7.47;;
51949;SDS011;37974;53.218;6.640;2023-08-06T00:04:39;12.65;;;7.82;;
51949;SDS011;37974;53.218;6.640;2023-08-06T00:07:05;11.75;;;7.53;;
51949;SDS011;37974;53.218;6.640;2023-08-06T00:09:30;13.27;;;7.32;;
51949;SDS011;37974;53.218;6.640;2023-08-06T00:11:56;17.70;;;8.90;;
51949;SDS011;37974;53.218;6.640;2023-08-06T00:14:22;16.95;;;8.82;;
51949;SDS011;37974;53.218;6.640;2023-08-06T00:16:47;11.25;;;7.95;;
51949;SDS011;37974;53.218;6.640;2023-08-06T00:19:13;11.90;;;7.25;;
51949;SDS011;37974;53.218;6.640;2023-08-06T00:21:39;10.80;;;7.75;;
51949;SDS011;37974;53.218;6.640;2023-08-06T00:24:04;15.23;;;7.40;;
51949;SDS011;37974;53.218;6.640;2023-08-06T00:26:30;12.80;;;9.38;;
51949;SDS011;37974;53.218;6.640;2023-08-06T00:28:56;11.57;;;7.97;;
51949;SDS011;37974;53.218;6.640;2023-08-06T00:31:22;13.68;;;8.43;;
51949;SDS011;37974;53.218;6.640;2023-08-06T00:33:47;15.80;;;7.60;;
51949;SDS011;37974;53.218;6.640;2023-08-06T00:36:13;16.92;;;7.45;;
51949;SDS011;37974;53.218;6.640;2023-08-06T00:38:39;14.90;;;9.50;;
51949;SDS011;37974;53.218;6.640;2023-08-06T00:41:04;10.18;;;7.88;;
51949;SDS011;37974;53.218;6.640;2023-08-06T00:43:30;20.20;;;8.50;;
51949;SDS011;37974;53.218;6.640;2023-08-06T00:45:56;13.02;;;7.50;;
51949;SDS011;37974;53.218;6.640;2023-08-06T00:48:22;12.75;;;7.97;;
51949;SDS011;37974;53.218;6.640;2023-08-06T00:50:47;12.50;;;8.45;;
51949;SDS011;37974;53.218;6.640;2023-08-06T00:53:13;12.43;;;9.10;;
51949;SDS011;37974;53.218;6.640;2023-08-06T00:55:39;14.77;;;8.13;;
51949;SDS011;37974;53.218;6.640;2023-08-06T00:58:07;15.50;;;7.97;;
51949;SDS011;37974;53.218;6.640;2023-08-06T01:00:32;14.45;;;7.88;;
51949;SDS011;37974;53.218;6.640;2023-08-06T01:02:58;12.55;;;8.55;;
51949;SDS011;37974;53.218;6.640;2023-08-06T01:05:24;16.60;;;8.70;;
51949;SDS011;37974;53.218;6.640;2023-08-06T01:13:48;13.13;;;8.73;;
51949;SDS011;37974;53.218;6.640;2023-08-06T01:16:17;13.15;;;8.38;;
51949;SDS011;37974;53.218;6.640;2023-08-06T01:18:44;11.63;;;7.88;;
51949;SDS011;37974;53.218;6.640;2023-08-06T01:21:15;16.35;;;8.30;;
51949;SDS011;37974;53.218;6.640;2023-08-06T01:23:41;14.60;;;8.38;;
51949;SDS011;37974;53.218;6.640;2023-08-06T01:28:40;16.02;;;9.13;;
51949;SDS011;37974;53.218;6.640;2023-08-06T01:31:26;10.40;;;8.45;;
51949;SDS011;37974;53.218;6.640;2023-08-06T01:33:59;10.52;;;8.45;;
51949;SDS011;37974;53.218;6.640;2023-08-06T01:36:27;13.63;;;9.35;;
51949;SDS011;37974;53.218;6.640;2023-08-06T01:38:54;14.85;;;9.05;;
51949;SDS011;37974;53.218;6.640;2023-08-06T01:41:19;11.43;;;8.70;;
51949;SDS011;37974;53.218;6.640;2023-08-06T01:43:45;16.73;;;10.02;;
51949;SDS011;37974;53.218;6.640;2023-08-06T01:46:11;16.50;;;10.63;;
51949;SDS011;37974;53.218;6.640;2023-08-06T01:48:36;14.88;;;11.13;;
51949;SDS011;37974;53.218;6.640;2023-08-06T01:51:05;16.23;;;9.85;;
51949;SDS011;37974;53.218;6.640;2023-08-06T01:53:32;18.15;;;9.80;;
51949;SDS011;37974;53.218;6.640;2023-08-06T01:55:58;16.58;;;10.48;;
51949;SDS011;37974;53.218;6.640;2023-08-06T01:58:24;15.88;;;11.13;;
51949;SDS011;37974;53.218;6.640;2023-08-06T02:00:50;16.95;;;10.38;;
51949;SDS011;37974;53.218;6.640;2023-08-06T02:03:16;18.58;;;12.43;;
51949;SDS011;37974;53.218;6.640;2023-08-06T02:05:42;16.52;;;11.13;;
51949;SDS011;37974;53.218;6.640;2023-08-06T02:08:07;17.95;;;11.27;;
51949;SDS011;37974;53.218;6.640;2023-08-06T02:10:33;14.75;;;10.95;;
51949;SDS011;37974;53.218;6.640;2023-08-06T02:12:59;20.38;;;12.75;;
51949;SDS011;37974;53.218;6.640;2023-08-06T02:15:25;20.10;;;12.93;;
51949;SDS011;37974;53.218;6.640;2023-08-06T02:17:50;16.23;;;11.80;;
51949;SDS011;37974;53.218;6.640;2023-08-06T02:20:16;14.18;;;11.63;;
51949;SDS011;37974;53.218;6.640;2023-08-06T02:22:42;14.75;;;11.43;;
51949;SDS011;37974;53.218;6.640;2023-08-06T02:25:07;18.02;;;13.68;;
51949;SDS011;37974;53.218;6.640;2023-08-06T02:27:33;16.15;;;10.60;;
51949;SDS011;37974;53.218;6.640;2023-08-06T02:29:59;15.98;;;11.60;;
51949;SDS011;37974;53.218;6.640;2023-08-06T02:32:25;19.65;;;11.80;;
51949;SDS011;37974;53.218;6.640;2023-08-06T02:34:50;17.17;;;12.85;;
51949;SDS011;37974;53.218;6.640;2023-08-06T02:37:16;18.55;;;14.75;;
51949;SDS011;37974;53.218;6.640;2023-08-06T02:39:42;25.13;;;14.07;;
51949;SDS011;37974;53.218;6.640;2023-08-06T02:42:08;17.95;;;11.70;;
51949;SDS011;37974;53.218;6.640;2023-08-06T02:44:34;18.92;;;13.98;;
51949;SDS011;37974;53.218;6.640;2023-08-06T02:47:00;23.55;;;14.25;;
51949;SDS011;37974;53.218;6.640;2023-08-06T02:49:26;17.20;;;12.50;;
51949;SDS011;37974;53.218;6.640;2023-08-06T02:51:52;17.85;;;13.68;;
51949;SDS011;37974;53.218;6.640;2023-08-06T02:54:18;14.77;;;11.88;;
51949;SDS011;37974;53.218;6.640;2023-08-06T02:56:45;14.13;;;11.88;;
51949;SDS011;37974;53.218;6.640;2023-08-06T02:59:12;19.55;;;12.85;;
51949;SDS011;37974;53.218;6.640;2023-08-06T03:01:38;21.25;;;13.65;;
51949;SDS011;37974;53.218;6.640;2023-08-06T03:04:03;20.33;;;12.27;;
51949;SDS011;37974;53.218;6.640;2023-08-06T03:06:29;13.68;;;12.20;;
51949;SDS011;37974;53.218;6.640;2023-08-06T03:08:55;20.95;;;13.88;;
51949;SDS011;37974;53.218;6.640;2023-08-06T03:11:21;16.30;;;12.85;;
51949;SDS011;37974;53.218;6.640;2023-08-06T03:13:47;19.92;;;14.35;;
51949;SDS011;37974;53.218;6.640;2023-08-06T03:16:13;18.08;;;13.40;;
51949;SDS011;37974;53.218;6.640;2023-08-06T03:18:39;17.45;;;12.80;;
51949;SDS011;37974;53.218;6.640;2023-08-06T03:21:05;19.13;;;14.45;;
51949;SDS011;37974;53.218;6.640;2023-08-06T03:23:30;19.75;;;13.10;;
51949;SDS011;37974;53.218;6.640;2023-08-06T03:26:00;17.85;;;12.35;;
51949;SDS011;37974;53.218;6.640;2023-08-06T03:28:27;20.20;;;14.65;;
51949;SDS011;37974;53.218;6.640;2023-08-06T03:31:02;16.55;;;13.90;;
51949;SDS011;37974;53.218;6.640;2023-08-06T03:33:29;17.02;;;13.18;;
51949;SDS011;37974;53.218;6.640;2023-08-06T03:35:55;16.70;;;11.55;;
51949;SDS011;37974;53.218;6.640;2023-08-06T03:38:21;18.73;;;12.07;;
51949;SDS011;37974;53.218;6.640;2023-08-06T03:40:47;20.73;;;12.93;;
51949;SDS011;37974;53.218;6.640;2023-08-06T03:43:14;22.52;;;15.30;;
51949;SDS011;37974;53.218;6.640;2023-08-06T03:45:40;17.27;;;12.57;;
51949;SDS011;37974;53.218;6.640;2023-08-06T03:48:06;21.38;;;11.95;;
51949;SDS011;37974;53.218;6.640;2023-08-06T03:50:32;17.98;;;11.95;;
51949;SDS011;37974;53.218;6.640;2023-08-06T03:52:57;13.25;;;10.43;;
51949;SDS011;37974;53.218;6.640;2023-08-06T03:55:23;16.08;;;11.63;;
51949;SDS011;37974;53.218;6.640;2023-08-06T03:57:49;19.40;;;11.55;;
51949;SDS011;37974;53.218;6.640;2023-08-06T04:00:14;16.15;;;12.55;;
51949;SDS011;37974;53.218;6.640;2023-08-06T04:02:40;13.98;;;10.45;;
51949;SDS011;37974;53.218;6.640;2023-08-06T04:05:06;19.83;;;11.77;;
51949;SDS011;37974;53.218;6.640;2023-08-06T04:07:32;17.88;;;12.00;;
51949;SDS011;37974;53.218;6.640;2023-08-06T04:09:58;17.27;;;11.20;;
51949;SDS011;37974;53.218;6.640;2023-08-06T04:12:25;19.52;;;10.82;;
51949;SDS011;37974;53.218;6.640;2023-08-06T04:14:51;16.95;;;10.48;;
51949;SDS011;37974;53.218;6.640;2023-08-06T04:17:18;15.48;;;10.38;;
51949;SDS011;37974;53.218;6.640;2023-08-06T04:19:52;13.32;;;10.68;;
51949;SDS011;37974;53.218;6.640;2023-08-06T04:22:19;13.52;;;10.75;;
51949;SDS011;37974;53.218;6.640;2023-08-06T04:24:45;13.18;;;9.68;;
51949;SDS011;37974;53.218;6.640;2023-08-06T04:27:11;14.18;;;9.43;;
51949;SDS011;37974;53.218;6.640;2023-08-06T04:29:38;14.27;;;9.43;;
51949;SDS011;37974;53.218;6.640;2023-08-06T04:32:05;14.23;;;9.73;;
51949;SDS011;37974;53.218;6.640;2023-08-06T04:34:32;16.42;;;9.32;;
51949;SDS011;37974;53.218;6.640;2023-08-06T04:36:58;16.83;;;10.75;;
51949;SDS011;37974;53.218;6.640;2023-08-06T04:39:24;14.48;;;10.43;;
51949;SDS011;37974;53.218;6.640;2023-08-06T04:41:50;20.27;;;10.93;;
51949;SDS011;37974;53.218;6.640;2023-08-06T04:44:16;14.82;;;11.60;;
51949;SDS011;37974;53.218;6.640;2023-08-06T04:46:42;14.52;;;10.23;;
51949;SDS011;37974;53.218;6.640;2023-08-06T04:49:07;12.60;;;10.02;;
51949;SDS011;37974;53.218;6.640;2023-08-06T04:51:33;13.95;;;9.90;;
51949;SDS011;37974;53.218;6.640;2023-08-06T04:53:59;15.48;;;9.70;;
51949;SDS011;37974;53.218;6.640;2023-08-06T04:56:25;13.85;;;9.45;;
51949;SDS011;37974;53.218;6.640;2023-08-06T04:58:50;14.02;;;9.55;;
51949;SDS011;37974;53.218;6.640;2023-08-06T05:01:16;11.85;;;9.63;;
51949;SDS011;37974;53.218;6.640;2023-08-06T05:03:42;12.15;;;9.70;;
51949;SDS011;37974;53.218;6.640;2023-08-06T05:06:08;13.88;;;10.20;;
51949;SDS011;37974;53.218;6.640;2023-08-06T05:08:33;13.82;;;9.25;;
51949;SDS011;37974;53.218;6.640;2023-08-06T05:10:59;14.82;;;9.98;;
51949;SDS011;37974;53.218;6.640;2023-08-06T05:13:25;14.90;;;9.90;;
51949;SDS011;37974;53.218;6.640;2023-08-06T05:15:53;12.18;;;9.38;;
51949;SDS011;37974;53.218;6.640;2023-08-06T05:18:19;17.85;;;11.52;;
51949;SDS011;37974;53.218;6.640;2023-08-06T05:20:45;16.88;;;11.13;;
51949;SDS011;37974;53.218;6.640;2023-08-06T05:23:10;13.50;;;10.30;;
51949;SDS011;37974;53.218;6.640;2023-08-06T05:25:36;17.00;;;12.30;;
51949;SDS011;37974;53.218;6.640;2023-08-06T05:28:03;14.70;;;11.38;;
51949;SDS011;37974;53.218;6.640;2023-08-06T05:30:29;14.35;;;11.40;;
51949;SDS011;37974;53.218;6.640;2023-08-06T05:32:54;14.75;;;11.52;;
51949;SDS011;37974;53.218;6.640;2023-08-06T05:35:20;13.45;;;9.93;;
51949;SDS011;37974;53.218;6.640;2023-08-06T05:37:47;14.00;;;10.80;;
51949;SDS011;37974;53.218;6.640;2023-08-06T05:40:13;15.48;;;10.68;;
51949;SDS011;37974;53.218;6.640;2023-08-06T05:42:39;17.10;;;10.93;;
51949;SDS011;37974;53.218;6.640;2023-08-06T05:45:05;18.70;;;11.43;;
51949;SDS011;37974;53.218;6.640;2023-08-06T05:47:31;17.75;;;10.55;;
51949;SDS011;37974;53.218;6.640;2023-08-06T05:49:57;13.05;;;9.93;;
51949;SDS011;37974;53.218;6.640;2023-08-06T05:52:23;15.55;;;9.27;;
51949;SDS011;37974;53.218;6.640;2023-08-06T05:54:49;13.18;;;8.88;;
51949;SDS011;37974;53.218;6.640;2023-08-06T05:57:15;11.50;;;8.63;;
51949;SDS011;37974;53.218;6.640;2023-08-06T05:59:41;9.30;;;8.13;;
51949;SDS011;37974;53.218;6.640;2023-08-06T06:02:07;11.23;;;8.32;;
51949;SDS011;37974;53.218;6.640;2023-08-06T06:04:33;16.02;;;7.88;;
51949;SDS011;37974;53.218;6.640;2023-08-06T06:06:59;9.07;;;7.70;;
51949;SDS011;37974;53.218;6.640;2023-08-06T06:09:24;12.13;;;7.85;;
51949;SDS011;37974;53.218;6.640;2023-08-06T06:11:50;9.70;;;7.22;;
51949;SDS011;37974;53.218;6.640;2023-08-06T06:14:17;9.70;;;7.25;;
51949;SDS011;37974;53.218;6.640;2023-08-06T06:16:43;7.70;;;6.90;;
51949;SDS011;37974;53.218;6.640;2023-08-06T06:19:09;11.73;;;7.18;;
51949;SDS011;37974;53.218;6.640;2023-08-06T06:21:34;9.65;;;6.30;;
51949;SDS011;37974;53.218;6.640;2023-08-06T06:24:00;11.13;;;6.45;;
51949;SDS011;37974;53.218;6.640;2023-08-06T06:26:26;10.75;;;6.75;;
51949;SDS011;37974;53.218;6.640;2023-08-06T06:28:51;9.35;;;6.53;;
51949;SDS011;37974;53.218;6.640;2023-08-06T06:31:17;7.88;;;6.57;;
51949;SDS011;37974;53.218;6.640;2023-08-06T06:33:43;8.48;;;6.50;;
51949;SDS011;37974;53.218;6.640;2023-08-06T06:36:09;8.52;;;6.18;;
51949;SDS011;37974;53.218;6.640;2023-08-06T06:38:35;9.63;;;7.05;;
51949;SDS011;37974;53.218;6.640;2023-08-06T06:41:01;11.20;;;6.70;;
51949;SDS011;37974;53.218;6.640;2023-08-06T06:43:28;13.65;;;6.80;;
51949;SDS011;37974;53.218;6.640;2023-08-06T06:45:57;7.88;;;5.85;;
51949;SDS011;37974;53.218;6.640;2023-08-06T06:48:27;9.38;;;5.63;;
51949;SDS011;37974;53.218;6.640;2023-08-06T06:50:54;8.60;;;6.60;;
51949;SDS011;37974;53.218;6.640;2023-08-06T06:53:20;9.15;;;6.72;;
51949;SDS011;37974;53.218;6.640;2023-08-06T06:55:52;9.35;;;5.88;;
51949;SDS011;37974;53.218;6.640;2023-08-06T06:58:21;8.90;;;5.68;;
51949;SDS011;37974;53.218;6.640;2023-08-06T07:00:47;7.97;;;5.72;;
51949;SDS011;37974;53.218;6.640;2023-08-06T07:03:16;8.80;;;5.75;;
51949;SDS011;37974;53.218;6.640;2023-08-06T07:05:43;6.72;;;5.32;;
51949;SDS011;37974;53.218;6.640;2023-08-06T07:08:09;10.13;;;5.90;;
51949;SDS011;37974;53.218;6.640;2023-08-06T07:10:35;8.02;;;5.22;;
51949;SDS011;37974;53.218;6.640;2023-08-06T07:13:01;8.50;;;5.63;;
51949;SDS011;37974;53.218;6.640;2023-08-06T07:15:26;8.25;;;5.47;;
51949;SDS011;37974;53.218;6.640;2023-08-06T07:17:52;7.15;;;4.90;;
51949;SDS011;37974;53.218;6.640;2023-08-06T07:20:18;7.07;;;4.85;;
51949;SDS011;37974;53.218;6.640;2023-08-06T07:22:44;7.20;;;4.65;;
51949;SDS011;37974;53.218;6.640;2023-08-06T07:25:10;9.13;;;4.97;;
51949;SDS011;37974;53.218;6.640;2023-08-06T07:27:36;7.22;;;4.85;;
51949;SDS011;37974;53.218;6.640;2023-08-06T07:30:02;6.68;;;4.53;;
51949;SDS011;37974;53.218;6.640;2023-08-06T07:32:28;6.53;;;4.70;;
51949;SDS011;37974;53.218;6.640;2023-08-06T07:34:54;6.40;;;4.38;;
51949;SDS011;37974;53.218;6.640;2023-08-06T07:37:24;8.75;;;4.43;;
51949;SDS011;37974;53.218;6.640;2023-08-06T07:39:50;5.78;;;4.10;;
51949;SDS011;37974;53.218;6.640;2023-08-06T07:42:19;8.30;;;4.13;;
51949;SDS011;37974;53.218;6.640;2023-08-06T07:44:55;6.13;;;4.75;;
51949;SDS011;37974;53.218;6.640;2023-08-06T07:47:22;7.30;;;4.85;;
51949;SDS011;37974;53.218;6.640;2023-08-06T07:49:48;8.05;;;5.28;;
51949;SDS011;37974;53.218;6.640;2023-08-06T07:52:13;8.38;;;5.13;;
51949;SDS011;37974;53.218;6.640;2023-08-06T07:54:39;8.55;;;4.60;;
51949;SDS011;37974;53.218;6.640;2023-08-06T07:57:06;5.97;;;4.22;;
51949;SDS011;37974;53.218;6.640;2023-08-06T07:59:31;6.00;;;4.20;;
51949;SDS011;37974;53.218;6.640;2023-08-06T08:01:57;10.05;;;4.68;;
51949;SDS011;37974;53.218;6.640;2023-08-06T08:04:24;8.27;;;4.50;;
51949;SDS011;37974;53.218;6.640;2023-08-06T08:06:50;9.98;;;5.38;;
51949;SDS011;37974;53.218;6.640;2023-08-06T08:09:15;10.38;;;5.05;;
51949;SDS011;37974;53.218;6.640;2023-08-06T08:11:41;13.98;;;10.55;;
51949;SDS011;37974;53.218;6.640;2023-08-06T08:14:07;11.00;;;6.25;;
51949;SDS011;37974;53.218;6.640;2023-08-06T08:16:33;8.07;;;4.63;;
51949;SDS011;37974;53.218;6.640;2023-08-06T08:18:59;6.65;;;4.13;;
51949;SDS011;37974;53.218;6.640;2023-08-06T08:21:25;6.82;;;4.25;;
51949;SDS011;37974;53.218;6.640;2023-08-06T08:23:51;6.43;;;3.70;;
51949;SDS011;37974;53.218;6.640;2023-08-06T08:26:16;12.02;;;3.47;;
51949;SDS011;37974;53.218;6.640;2023-08-06T08:28:42;6.40;;;4.40;;
51949;SDS011;37974;53.218;6.640;2023-08-06T08:31:08;6.03;;;3.97;;
51949;SDS011;37974;53.218;6.640;2023-08-06T08:33:35;10.60;;;4.00;;
51949;SDS011;37974;53.218;6.640;2023-08-06T08:36:00;10.63;;;4.03;;
51949;SDS011;37974;53.218;6.640;2023-08-06T08:38:26;6.07;;;3.42;;
51949;SDS011;37974;53.218;6.640;2023-08-06T08:40:53;5.70;;;3.38;;
51949;SDS011;37974;53.218;6.640;2023-08-06T08:43:20;7.13;;;4.10;;
51949;SDS011;37974;53.218;6.640;2023-08-06T08:45:49;7.05;;;3.47;;
51949;SDS011;37974;53.218;6.640;2023-08-06T08:48:17;5.25;;;3.28;;
51949;SDS011;37974;53.218;6.640;2023-08-06T08:50:44;4.97;;;3.10;;
51949;SDS011;37974;53.218;6.640;2023-08-06T08:53:12;8.27;;;3.10;;
51949;SDS011;37974;53.218;6.640;2023-08-06T08:55:39;5.30;;;3.17;;
51949;SDS011;37974;53.218;6.640;2023-08-06T08:58:05;10.10;;;6.38;;
51949;SDS011;37974;53.218;6.640;2023-08-06T09:00:32;5.55;;;2.97;;
51949;SDS011;37974;53.218;6.640;2023-08-06T09:02:58;13.90;;;9.18;;
51949;SDS011;37974;53.218;6.640;2023-08-06T09:05:26;11.10;;;6.07;;
51949;SDS011;37974;53.218;6.640;2023-08-06T09:07:56;8.10;;;2.72;;
51949;SDS011;37974;53.218;6.640;2023-08-06T09:10:28;10.52;;;4.95;;
51949;SDS011;37974;53.218;6.640;2023-08-06T09:12:55;6.53;;;3.08;;
51949;SDS011;37974;53.218;6.640;2023-08-06T09:15:25;8.95;;;4.57;;
51949;SDS011;37974;53.218;6.640;2023-08-06T09:17:52;3.35;;;2.05;;
51949;SDS011;37974;53.218;6.640;2023-08-06T09:20:18;4.32;;;2.03;;
51949;SDS011;37974;53.218;6.640;2023-08-06T09:22:44;4.60;;;2.03;;
51949;SDS011;37974;53.218;6.640;2023-08-06T09:25:13;19.67;;;9.73;;
51949;SDS011;37974;53.218;6.640;2023-08-06T09:27:48;4.13;;;2.10;;
51949;SDS011;37974;53.218;6.640;2023-08-06T09:30:28;3.42;;;1.30;;
51949;SDS011;37974;53.218;6.640;2023-08-06T09:32:56;2.70;;;1.35;;
51949;SDS011;37974;53.218;6.640;2023-08-06T09:35:22;6.72;;;1.50;;
51949;SDS011;37974;53.218;6.640;2023-08-06T09:37:47;5.10;;;1.40;;
51949;SDS011;37974;53.218;6.640;2023-08-06T09:40:27;3.88;;;1.70;;
51949;SDS011;37974;53.218;6.640;2023-08-06T09:42:55;5.55;;;1.88;;
51949;SDS011;37974;53.218;6.640;2023-08-06T09:45:22;6.03;;;1.33;;
51949;SDS011;37974;53.218;6.640;2023-08-06T09:47:56;7.35;;;1.50;;
51949;SDS011;37974;53.218;6.640;2023-08-06T09:50:22;7.60;;;2.63;;
51949;SDS011;37974;53.218;6.640;2023-08-06T09:52:51;5.43;;;2.05;;
51949;SDS011;37974;53.218;6.640;2023-08-06T09:55:17;6.07;;;1.73;;
51949;SDS011;37974;53.218;6.640;2023-08-06T09:57:43;4.85;;;1.67;;
51949;SDS011;37974;53.218;6.640;2023-08-06T10:00:10;4.00;;;1.50;;
51949;SDS011;37974;53.218;6.640;2023-08-06T10:02:40;3.80;;;1.40;;
51949;SDS011;37974;53.218;6.640;2023-08-06T10:05:06;2.63;;;1.20;;
51949;SDS011;37974;53.218;6.640;2023-08-06T10:07:33;3.90;;;1.40;;
51949;SDS011;37974;53.218;6.640;2023-08-06T10:09:59;8.13;;;1.50;;
51949;SDS011;37974;53.218;6.640;2023-08-06T10:12:27;3.53;;;1.30;;
51949;SDS011;37974;53.218;6.640;2023-08-06T10:14:56;3.47;;;1.52;;
51949;SDS011;37974;53.218;6.640;2023-08-06T10:17:24;2.22;;;1.20;;
51949;SDS011;37974;53.218;6.640;2023-08-06T10:19:52;2.38;;;1.20;;
51949;SDS011;37974;53.218;6.640;2023-08-06T10:22:20;1.50;;;0.93;;
51949;SDS011;37974;53.218;6.640;2023-08-06T10:25:00;2.30;;;0.90;;
51949;SDS011;37974;53.218;6.640;2023-08-06T10:27:34;3.15;;;1.10;;
51949;SDS011;37974;53.218;6.640;2023-08-06T10:33:09;3.88;;;1.42;;
51949;SDS011;37974;53.218;6.640;2023-08-06T10:35:36;2.40;;;1.20;;
51949;SDS011;37974;53.218;6.640;2023-08-06T10:40:31;3.60;;;1.25;;
51949;SDS011;37974;53.218;6.640;2023-08-06T10:42:58;3.28;;;1.38;;
51949;SDS011;37974;53.218;6.640;2023-08-06T10:45:25;2.50;;;0.98;;
51949;SDS011;37974;53.218;6.640;2023-08-06T10:47:54;2.53;;;1.10;;
51949;SDS011;37974;53.218;6.640;2023-08-06T10:50:23;2.80;;;0.98;;
51949;SDS011;37974;53.218;6.640;2023-08-06T10:52:49;2.58;;;0.95;;
51949;SDS011;37974;53.218;6.640;2023-08-06T10:55:23;6.20;;;1.10;;
51949;SDS011;37974;53.218;6.640;2023-08-06T10:57:53;2.60;;;1.13;;
51949;SDS011;37974;53.218;6.640;2023-08-06T11:00:20;2.63;;;1.23;;
51949;SDS011;37974;53.218;6.640;2023-08-06T11:02:48;5.85;;;1.35;;
51949;SDS011;37974;53.218;6.640;2023-08-06T11:05:14;2.58;;;1.15;;
51949;SDS011;37974;53.218;6.640;2023-08-06T11:07:40;3.72;;;1.98;;
51949;SDS011;37974;53.218;6.640;2023-08-06T11:10:06;7.70;;;1.45;;
51949;SDS011;37974;53.218;6.640;2023-08-06T11:12:34;2.17;;;1.15;;
51949;SDS011;37974;53.218;6.640;2023-08-06T11:15:00;6.45;;;1.17;;
51949;SDS011;37974;53.218;6.640;2023-08-06T11:17:27;2.15;;;1.10;;
51949;SDS011;37974;53.218;6.640;2023-08-06T11:19:54;2.38;;;1.00;;
51949;SDS011;37974;53.218;6.640;2023-08-06T11:22:22;2.50;;;1.20;;
51949;SDS011;37974;53.218;6.640;2023-08-06T11:24:48;4.30;;;1.20;;
51949;SDS011;37974;53.218;6.640;2023-08-06T11:27:15;2.60;;;1.10;;
51949;SDS011;37974;53.218;6.640;2023-08-06T11:29:42;3.63;;;1.20;;
51949;SDS011;37974;53.218;6.640;2023-08-06T11:32:09;2.10;;;1.00;;
51949;SDS011;37974;53.218;6.640;2023-08-06T11:34:35;3.05;;;1.00;;
51949;SDS011;37974;53.218;6.640;2023-08-06T11:37:05;2.78;;;1.40;;
51949;SDS011;37974;53.218;6.640;2023-08-06T11:39:35;3.22;;;1.20;;
51949;SDS011;37974;53.218;6.640;2023-08-06T11:42:05;3.63;;;1.20;;
51949;SDS011;37974;53.218;6.640;2023-08-06T11:44:32;3.78;;;1.25;;
51949;SDS011;37974;53.218;6.640;2023-08-06T11:47:00;4.53;;;1.23;;
51949;SDS011;37974;53.218;6.640;2023-08-06T11:49:41;2.17;;;1.20;;
51949;SDS011;37974;53.218;6.640;2023-08-06T11:52:14;6.05;;;1.30;;
51949;SDS011;37974;53.218;6.640;2023-08-06T11:54:45;3.80;;;1.33;;
51949;SDS011;37974;53.218;6.640;2023-08-06T11:57:12;3.85;;;1.33;;
51949;SDS011;37974;53.218;6.640;2023-08-06T11:59:38;2.42;;;1.10;;
51949;SDS011;37974;53.218;6.640;2023-08-06T12:02:06;2.90;;;1.30;;
51949;SDS011;37974;53.218;6.640;2023-08-06T12:07:31;5.55;;;1.25;;
51949;SDS011;37974;53.218;6.640;2023-08-06T12:09:57;2.20;;;1.27;;
51949;SDS011;37974;53.218;6.640;2023-08-06T12:12:27;2.63;;;1.05;;
51949;SDS011;37974;53.218;6.640;2023-08-06T12:14:52;7.75;;;1.63;;
51949;SDS011;37974;53.218;6.640;2023-08-06T12:17:19;3.35;;;1.35;;
51949;SDS011;37974;53.218;6.640;2023-08-06T12:19:45;5.20;;;1.40;;
51949;SDS011;37974;53.218;6.640;2023-08-06T12:22:12;2.42;;;1.00;;
51949;SDS011;37974;53.218;6.640;2023-08-06T12:24:39;3.35;;;1.27;;
51949;SDS011;37974;53.218;6.640;2023-08-06T12:27:14;3.17;;;1.00;;
51949;SDS011;37974;53.218;6.640;2023-08-06T12:29:52;3.63;;;1.20;;
51949;SDS011;37974;53.218;6.640;2023-08-06T12:32:17;4.03;;;1.05;;
51949;SDS011;37974;53.218;6.640;2023-08-06T12:34:44;3.50;;;1.17;;
51949;SDS011;37974;53.218;6.640;2023-08-06T12:37:10;4.75;;;1.30;;
51949;SDS011;37974;53.218;6.640;2023-08-06T12:39:36;5.55;;;1.30;;
51949;SDS011;37974;53.218;6.640;2023-08-06T12:42:03;2.60;;;1.13;;
51949;SDS011;37974;53.218;6.640;2023-08-06T12:44:30;3.20;;;1.30;;
51949;SDS011;37974;53.218;6.640;2023-08-06T12:46:56;2.20;;;1.17;;
51949;SDS011;37974;53.218;6.640;2023-08-06T12:49:22;6.22;;;1.10;;
51949;SDS011;37974;53.218;6.640;2023-08-06T12:51:48;4.45;;;1.30;;
51949;SDS011;37974;53.218;6.640;2023-08-06T12:54:15;3.67;;;1.20;;
51949;SDS011;37974;53.218;6.640;2023-08-06T12:56:42;3.97;;;1.25;;
51949;SDS011;37974;53.218;6.640;2023-08-06T12:59:09;2.47;;;1.08;;
51949;SDS011;37974;53.218;6.640;2023-08-06T13:01:37;2.33;;;1.25;;
51949;SDS011;37974;53.218;6.640;2023-08-06T13:04:03;2.80;;;1.23;;
51949;SDS011;37974;53.218;6.640;2023-08-06T13:06:29;1.85;;;1.08;;
51949;SDS011;37974;53.218;6.640;2023-08-06T13:08:56;3.17;;;0.77;;
51949;SDS011;37974;53.218;6.640;2023-08-06T13:11:22;4.47;;;1.20;;
51949;SDS011;37974;53.218;6.640;2023-08-06T13:13:48;2.47;;;0.95;;
51949;SDS011;37974;53.218;6.640;2023-08-06T13:16:14;2.13;;;0.95;;
51949;SDS011;37974;53.218;6.640;2023-08-06T13:18:40;2.60;;;0.80;;
51949;SDS011;37974;53.218;6.640;2023-08-06T13:21:06;2.40;;;1.00;;
51949;SDS011;37974;53.218;6.640;2023-08-06T13:23:32;3.10;;;1.33;;
51949;SDS011;37974;53.218;6.640;2023-08-06T13:25:58;1.88;;;0.93;;
51949;SDS011;37974;53.218;6.640;2023-08-06T13:28:27;2.45;;;1.15;;
51949;SDS011;37974;53.218;6.640;2023-08-06T13:30:53;6.65;;;1.15;;
51949;SDS011;37974;53.218;6.640;2023-08-06T13:33:18;2.55;;;1.00;;
51949;SDS011;37974;53.218;6.640;2023-08-06T13:35:44;2.65;;;1.02;;
51949;SDS011;37974;53.218;6.640;2023-08-06T13:38:10;2.30;;;0.85;;
51949;SDS011;37974;53.218;6.640;2023-08-06T13:40:36;2.92;;;1.10;;
51949;SDS011;37974;53.218;6.640;2023-08-06T13:43:01;1.90;;;1.00;;
51949;SDS011;37974;53.218;6.640;2023-08-06T13:45:27;2.60;;;1.10;;
51949;SDS011;37974;53.218;6.640;2023-08-06T13:47:55;2.40;;;0.88;;
51949;SDS011;37974;53.218;6.640;2023-08-06T13:50:21;1.33;;;0.80;;
51949;SDS011;37974;53.218;6.640;2023-08-06T13:52:47;3.38;;;0.88;;
51949;SDS011;37974;53.218;6.640;2023-08-06T13:55:13;3.08;;;1.20;;
51949;SDS011;37974;53.218;6.640;2023-08-06T13:57:38;1.60;;;1.00;;
51949;SDS011;37974;53.218;6.640;2023-08-06T14:00:04;1.63;;;0.80;;
51949;SDS011;37974;53.218;6.640;2023-08-06T14:02:30;2.05;;;0.93;;
51949;SDS011;37974;53.218;6.640;2023-08-06T14:04:56;2.10;;;0.90;;
51949;SDS011;37974;53.218;6.640;2023-08-06T14:07:22;3.08;;;1.20;;
51949;SDS011;37974;53.218;6.640;2023-08-06T14:09:48;2.28;;;1.10;;
51949;SDS011;37974;53.218;6.640;2023-08-06T14:12:14;2.50;;;1.20;;
51949;SDS011;37974;53.218;6.640;2023-08-06T14:14:40;1.90;;;0.88;;
51949;SDS011;37974;53.218;6.640;2023-08-06T14:17:05;3.30;;;1.30;;
51949;SDS011;37974;53.218;6.640;2023-08-06T14:19:31;2.55;;;1.30;;
51949;SDS011;37974;53.218;6.640;2023-08-06T14:21:57;6.68;;;1.10;;
51949;SDS011;37974;53.218;6.640;2023-08-06T14:24:23;2.83;;;1.02;;
51949;SDS011;37974;53.218;6.640;2023-08-06T14:26:49;3.42;;;1.17;;
51949;SDS011;37974;53.218;6.640;2023-08-06T14:29:14;2.75;;;1.10;;
51949;SDS011;37974;53.218;6.640;2023-08-06T14:31:40;1.33;;;0.93;;
51949;SDS011;37974;53.218;6.640;2023-08-06T14:34:06;3.17;;;1.05;;
51949;SDS011;37974;53.218;6.640;2023-08-06T14:36:32;3.00;;;1.20;;
51949;SDS011;37974;53.218;6.640;2023-08-06T14:38:58;5.63;;;1.25;;
51949;SDS011;37974;53.218;6.640;2023-08-06T14:41:24;1.70;;;0.90;;
51949;SDS011;37974;53.218;6.640;2023-08-06T14:43:50;5.88;;;1.30;;
51949;SDS011;37974;53.218;6.640;2023-08-06T14:46:15;1.52;;;0.88;;
51949;SDS011;37974;53.218;6.640;2023-08-06T14:48:41;2.85;;;1.30;;
51949;SDS011;37974;53.218;6.640;2023-08-06T14:51:07;2.13;;;0.93;;
51949;SDS011;37974;53.218;6.640;2023-08-06T14:53:33;3.15;;;1.25;;